Hauptseite
METAR-TAF:

METAR-TAF

Flughäfen :

Yap, Yap Island, Mikronesien

Breite: 09-29N, Länge: 138-05E, Höhe: 28 m

Beobachtung

Neuester Wetterbericht von vor 2 Stunden und 7 Minuten, um 20:50 UTC
Wind 5 kt aus unterschiedlichen Richtungen
Temperatur 27°C
Luftfeuchtigkeit 89%
Luftdruck 1008 hPa
Sichtweite: 19.3 km
Leicht bewölkt in der Höhe von 1600 ft
Durchbrochene Bewölkung in der Höhe von 30000 ft

METAR: PTYA 172050Z VRB05KT 12SM FEW016 BKN300 27/25 A2976 RMK SLP079 60009 8/101 T02690250 53007

Zeit: 08:57 (22:57 UTC)

Prognose

Neuester Wetterbericht von vor 5 Stunden und 37 Minuten, um 17:20 UTC
Gültige Prognose vom 17 um 18 UTC bis 18 um 18 UTC
Wind 5 kt aus unterschiedlichen Richtungen
Sichtweite: 10 km
Aufgelockert bewölkt in der Höhe von 1600 ft
Schauer in der Nähe

TAF: PTYA 171720Z 1718/1818 VRB05KT P6SM VCSH SCT016

Wetterbeobachtungen und Prognosen von mehr als 4000 Flughäfen (METAR und TAF Bericht).

Die verfügbaren Stationen werden durch gelbe und rote Markierungen auf der Karte dargestellt.

Führen Sie die Maus auf sie, um den Namen der Station zu sehen.

Darauf klicken, um die Beobachtung von Wetterbeobachtungen und Prognosen zu sehen.

Um die Karte zu ändern : klicken Sie auf den grünen Tasten mit einem schwarzen Kreuz Zum Vergrößern, auf den grünen Button mit einem Gedankenstrich zu verkleinern, oder auf die grünen Pfeile für benachbarte Karten.


METAR-TAF: